sensor_id;sensor_type;location;lat;lon;timestamp;pressure;altitude;pressure_sealevel;temperature;humidity
9325;BME280;4701;51.566;6.776;2023-02-23T06:02:04;100943.44;;;7.93;100.00
9325;BME280;4701;51.566;6.776;2023-02-23T06:04:05;100944.50;;;7.92;100.00
9325;BME280;4701;51.566;6.776;2023-02-23T06:06:07;100944.75;;;7.91;100.00
9325;BME280;4701;51.566;6.776;2023-02-23T06:08:09;100950.19;;;7.91;100.00
9325;BME280;4701;51.566;6.776;2023-02-23T06:10:11;100952.09;;;7.90;100.00
9325;BME280;4701;51.566;6.776;2023-02-23T06:12:12;100948.53;;;7.90;100.00
9325;BME280;4701;51.566;6.776;2023-02-23T06:14:14;100952.56;;;7.87;100.00
9325;BME280;4701;51.566;6.776;2023-02-23T06:16:16;100957.41;;;7.85;100.00
9325;BME280;4701;51.566;6.776;2023-02-23T06:18:19;100962.00;;;7.85;100.00
9325;BME280;4701;51.566;6.776;2023-02-23T06:20:21;100958.69;;;7.83;100.00
9325;BME280;4701;51.566;6.776;2023-02-23T06:22:23;100962.75;;;7.80;100.00
9325;BME280;4701;51.566;6.776;2023-02-23T06:24:25;100963.81;;;7.79;100.00
9325;BME280;4701;51.566;6.776;2023-02-23T06:26:26;100967.00;;;7.76;100.00
9325;BME280;4701;51.566;6.776;2023-02-23T06:28:28;100967.00;;;7.76;100.00
9325;BME280;4701;51.566;6.776;2023-02-23T06:30:30;100962.38;;;7.77;100.00
9325;BME280;4701;51.566;6.776;2023-02-23T06:32:32;100974.00;;;7.72;100.00
9325;BME280;4701;51.566;6.776;2023-02-23T06:34:40;100980.72;;;7.70;100.00
9325;BME280;4701;51.566;6.776;2023-02-23T06:36:46;100978.47;;;7.67;100.00
9325;BME280;4701;51.566;6.776;2023-02-23T06:38:47;100988.25;;;7.68;100.00
9325;BME280;4701;51.566;6.776;2023-02-23T06:40:49;100989.81;;;7.64;100.00
9325;BME280;4701;51.566;6.776;2023-02-23T06:42:51;100993.84;;;7.61;100.00
9325;BME280;4701;51.566;6.776;2023-02-23T06:44:53;100991.94;;;7.62;100.00
9325;BME280;4701;51.566;6.776;2023-02-23T06:46:54;100988.88;;;7.58;100.00
9325;BME280;4701;51.566;6.776;2023-02-23T06:48:56;100995.03;;;7.53;100.00
9325;BME280;4701;51.566;6.776;2023-02-23T06:51:00;100997.41;;;7.50;100.00
9325;BME280;4701;51.566;6.776;2023-02-23T06:53:02;100995.63;;;7.55;100.00
9325;BME280;4701;51.566;6.776;2023-02-23T06:55:05;101003.41;;;7.52;100.00
9325;BME280;4701;51.566;6.776;2023-02-23T06:57:08;101003.78;;;7.55;100.00
9325;BME280;4701;51.566;6.776;2023-02-23T06:59:09;100995.50;;;7.62;100.00
9325;BME280;4701;51.566;6.776;2023-02-23T07:01:11;101004.31;;;7.57;100.00
9325;BME280;4701;51.566;6.776;2023-02-23T07:03:13;101003.19;;;7.53;100.00
9325;BME280;4701;51.566;6.776;2023-02-23T07:05:15;101010.97;;;7.50;100.00
9325;BME280;4701;51.566;6.776;2023-02-23T07:07:18;101014.03;;;7.53;100.00
9325;BME280;4701;51.566;6.776;2023-02-23T07:09:20;101014.50;;;7.50;100.00
9325;BME280;4701;51.566;6.776;2023-02-23T07:11:21;101018.88;;;7.51;100.00
9325;BME280;4701;51.566;6.776;2023-02-23T07:13:23;101015.31;;;7.51;100.00
9325;BME280;4701;51.566;6.776;2023-02-23T07:15:25;101017.34;;;7.55;100.00
9325;BME280;4701;51.566;6.776;2023-02-23T07:17:27;101018.16;;;7.56;100.00
9325;BME280;4701;51.566;6.776;2023-02-23T07:19:29;101021.94;;;7.55;100.00
9325;BME280;4701;51.566;6.776;2023-02-23T07:21:31;101016.16;;;7.51;100.00
9325;BME280;4701;51.566;6.776;2023-02-23T07:23:34;101026.53;;;7.54;100.00
9325;BME280;4701;51.566;6.776;2023-02-23T07:25:36;101017.81;;;7.52;100.00
9325;BME280;4701;51.566;6.776;2023-02-23T07:27:38;101026.75;;;7.53;100.00
9325;BME280;4701;51.566;6.776;2023-02-23T07:29:41;101027.00;;;7.51;100.00
9325;BME280;4701;51.566;6.776;2023-02-23T07:31:43;101034.16;;;7.57;100.00
9325;BME280;4701;51.566;6.776;2023-02-23T07:33:45;101033.25;;;7.52;100.00
9325;BME280;4701;51.566;6.776;2023-02-23T07:35:48;101036.19;;;7.50;100.00
9325;BME280;4701;51.566;6.776;2023-02-23T07:37:49;101041.38;;;7.52;100.00
9325;BME280;4701;51.566;6.776;2023-02-23T07:39:53;101035.97;;;7.52;100.00
9325;BME280;4701;51.566;6.776;2023-02-23T07:41:54;101038.91;;;7.50;100.00
9325;BME280;4701;51.566;6.776;2023-02-23T07:43:57;101044.56;;;7.49;100.00
9325;BME280;4701;51.566;6.776;2023-02-23T07:46:00;101045.16;;;7.51;100.00
9325;BME280;4701;51.566;6.776;2023-02-23T07:48:02;101044.56;;;7.49;100.00
9325;BME280;4701;51.566;6.776;2023-02-23T07:50:05;101046.47;;;7.48;100.00
9325;BME280;4701;51.566;6.776;2023-02-23T07:52:09;101053.53;;;7.49;100.00
9325;BME280;4701;51.566;6.776;2023-02-23T07:54:11;101049.53;;;7.52;100.00
9325;BME280;4701;51.566;6.776;2023-02-23T07:56:14;101047.63;;;7.52;100.00
9325;BME280;4701;51.566;6.776;2023-02-23T07:58:15;101055.53;;;7.54;100.00
9325;BME280;4701;51.566;6.776;2023-02-23T08:00:18;101056.97;;;7.56;100.00
9325;BME280;4701;51.566;6.776;2023-02-23T08:02:20;101052.38;;;7.57;100.00
9325;BME280;4701;51.566;6.776;2023-02-23T08:04:21;101064.59;;;7.59;100.00
9325;BME280;4701;51.566;6.776;2023-02-23T08:06:23;101062.13;;;7.58;100.00
9325;BME280;4701;51.566;6.776;2023-02-23T08:08:25;101064.97;;;7.63;100.00
9325;BME280;4701;51.566;6.776;2023-02-23T08:10:27;101062.84;;;7.65;100.00
9325;BME280;4701;51.566;6.776;2023-02-23T08:12:31;101059.63;;;7.68;100.00
9325;BME280;4701;51.566;6.776;2023-02-23T08:14:33;101064.13;;;7.63;100.00
9325;BME280;4701;51.566;6.776;2023-02-23T08:16:35;101072.50;;;7.61;100.00
9325;BME280;4701;51.566;6.776;2023-02-23T08:18:37;101072.50;;;7.61;100.00
9325;BME280;4701;51.566;6.776;2023-02-23T08:20:39;101075.09;;;7.68;100.00
9325;BME280;4701;51.566;6.776;2023-02-23T08:22:40;101079.59;;;7.62;100.00
9325;BME280;4701;51.566;6.776;2023-02-23T08:24:42;101082.75;;;7.59;100.00
9325;BME280;4701;51.566;6.776;2023-02-23T08:26:44;101073.09;;;7.63;100.00
9325;BME280;4701;51.566;6.776;2023-02-23T08:28:47;101079.34;;;7.64;100.00
9325;BME280;4701;51.566;6.776;2023-02-23T08:30:49;101084.66;;;7.58;100.00
9325;BME280;4701;51.566;6.776;2023-02-23T08:32:51;101084.41;;;7.60;100.00
9325;BME280;4701;51.566;6.776;2023-02-23T08:34:53;101087.13;;;7.60;100.00
9325;BME280;4701;51.566;6.776;2023-02-23T08:36:55;101082.75;;;7.59;100.00
9325;BME280;4701;51.566;6.776;2023-02-23T08:38:57;101082.91;;;7.52;100.00
9325;BME280;4701;51.566;6.776;2023-02-23T08:41:00;101084.91;;;7.57;100.00
9325;BME280;4701;51.566;6.776;2023-02-23T08:43:01;101081.38;;;7.56;100.00
9325;BME280;4701;51.566;6.776;2023-02-23T08:45:05;101089.25;;;7.58;100.00
9325;BME280;4701;51.566;6.776;2023-02-23T08:47:07;101086.81;;;7.56;100.00
9325;BME280;4701;51.566;6.776;2023-02-23T08:49:09;101094.94;;;7.56;100.00
9325;BME280;4701;51.566;6.776;2023-02-23T08:51:11;101088.41;;;7.57;100.00
9325;BME280;4701;51.566;6.776;2023-02-23T08:53:13;101092.47;;;7.55;100.00
9325;BME280;4701;51.566;6.776;2023-02-23T08:55:15;101089.38;;;7.51;100.00
9325;BME280;4701;51.566;6.776;2023-02-23T08:57:17;101089.97;;;7.53;100.00
9325;BME280;4701;51.566;6.776;2023-02-23T08:59:19;101085.25;;;7.60;100.00
9325;BME280;4701;51.566;6.776;2023-02-23T09:01:22;101090.75;;;7.66;100.00
9325;BME280;4701;51.566;6.776;2023-02-23T09:03:25;101091.50;;;7.61;100.00
9325;BME280;4701;51.566;6.776;2023-02-23T09:05:27;101091.59;;;7.66;100.00
9325;BME280;4701;51.566;6.776;2023-02-23T09:07:29;101098.09;;;7.65;100.00
9325;BME280;4701;51.566;6.776;2023-02-23T09:09:31;101102.72;;;7.65;100.00
9325;BME280;4701;51.566;6.776;2023-02-23T09:11:33;101103.53;;;7.65;100.00
9325;BME280;4701;51.566;6.776;2023-02-23T09:13:35;101106.81;;;7.67;100.00
9325;BME280;4701;51.566;6.776;2023-02-23T09:15:37;101116.47;;;7.75;100.00
9325;BME280;4701;51.566;6.776;2023-02-23T09:17:40;101108.31;;;7.75;100.00
9325;BME280;4701;51.566;6.776;2023-02-23T09:19:44;101109.66;;;7.72;100.00
9325;BME280;4701;51.566;6.776;2023-02-23T09:21:46;101110.94;;;7.81;100.00
9325;BME280;4701;51.566;6.776;2023-02-23T09:23:47;101110.78;;;7.88;100.00
9325;BME280;4701;51.566;6.776;2023-02-23T09:25:51;101113.03;;;7.91;100.00
9325;BME280;4701;51.566;6.776;2023-02-23T09:27:54;101114.66;;;7.92;100.00
9325;BME280;4701;51.566;6.776;2023-02-23T09:29:57;101115.75;;;7.91;100.00
9325;BME280;4701;51.566;6.776;2023-02-23T09:31:59;101121.03;;;7.97;100.00
9325;BME280;4701;51.566;6.776;2023-02-23T09:34:02;101117.72;;;8.07;100.00
9325;BME280;4701;51.566;6.776;2023-02-23T09:36:05;101123.13;;;8.07;100.00
9325;BME280;4701;51.566;6.776;2023-02-23T09:38:07;101132.19;;;8.13;100.00
9325;BME280;4701;51.566;6.776;2023-02-23T09:40:13;101136.56;;;8.14;100.00
9325;BME280;4701;51.566;6.776;2023-02-23T09:42:26;101138.22;;;8.15;100.00
9325;BME280;4701;51.566;6.776;2023-02-23T09:44:41;101135.16;;;8.11;100.00
9325;BME280;4701;51.566;6.776;2023-02-23T09:46:57;101131.03;;;8.09;100.00
9325;BME280;4701;51.566;6.776;2023-02-23T09:49:10;101140.13;;;8.03;100.00
9325;BME280;4701;51.566;6.776;2023-02-23T09:51:16;101134.09;;;8.01;100.00
9325;BME280;4701;51.566;6.776;2023-02-23T09:53:28;101132.91;;;8.08;100.00
9325;BME280;4701;51.566;6.776;2023-02-23T09:55:31;101141.56;;;8.05;100.00
9325;BME280;4701;51.566;6.776;2023-02-23T09:57:37;101143.75;;;8.08;100.00
9325;BME280;4701;51.566;6.776;2023-02-23T09:59:39;101153.22;;;8.06;100.00
9325;BME280;4701;51.566;6.776;2023-02-23T10:01:51;101147.56;;;8.07;100.00
9325;BME280;4701;51.566;6.776;2023-02-23T10:03:58;101152.28;;;8.12;100.00
9325;BME280;4701;51.566;6.776;2023-02-23T10:06:08;101149.66;;;8.17;100.00
9325;BME280;4701;51.566;6.776;2023-02-23T10:08:19;101157.34;;;8.08;100.00
9325;BME280;4701;51.566;6.776;2023-02-23T10:10:27;101153.91;;;8.13;100.00
9325;BME280;4701;51.566;6.776;2023-02-23T10:12:40;101156.53;;;8.08;100.00
9325;BME280;4701;51.566;6.776;2023-02-23T10:17:28;101153.09;;;8.01;100.00
9325;BME280;4701;51.566;6.776;2023-02-23T10:19:40;101166.22;;;8.04;100.00
9325;BME280;4701;51.566;6.776;2023-02-23T10:21:52;101152.88;;;8.02;100.00
9325;BME280;4701;51.566;6.776;2023-02-23T10:23:58;101156.53;;;8.08;100.00
9325;BME280;4701;51.566;6.776;2023-02-23T10:26:02;101158.53;;;8.01;100.00
9325;BME280;4701;51.566;6.776;2023-02-23T10:28:11;101160.94;;;7.97;100.00
9325;BME280;4701;51.566;6.776;2023-02-23T10:30:18;101166.94;;;7.99;100.00
9325;BME280;4701;51.566;6.776;2023-02-23T10:32:25;101168.72;;;7.93;100.00
9325;BME280;4701;51.566;6.776;2023-02-23T10:34:30;101162.81;;;7.96;100.00
9325;BME280;4701;51.566;6.776;2023-02-23T10:36:35;101160.09;;;7.96;100.00
9325;BME280;4701;51.566;6.776;2023-02-23T10:38:38;101173.66;;;7.96;100.00
9325;BME280;4701;51.566;6.776;2023-02-23T10:40:41;101169.53;;;7.94;100.00
9325;BME280;4701;51.566;6.776;2023-02-23T10:42:43;101172.13;;;8.01;100.00
9325;BME280;4701;51.566;6.776;2023-02-23T10:44:45;101173.91;;;8.07;100.00
9325;BME280;4701;51.566;6.776;2023-02-23T10:46:52;101167.50;;;8.13;100.00
9325;BME280;4701;51.566;6.776;2023-02-23T10:48:55;101168.19;;;8.20;100.00
9325;BME280;4701;51.566;6.776;2023-02-23T10:51:00;101167.47;;;8.24;100.00
9325;BME280;4701;51.566;6.776;2023-02-23T10:53:10;101167.38;;;8.31;100.00
9325;BME280;4701;51.566;6.776;2023-02-23T10:55:23;101171.59;;;8.39;100.00
9325;BME280;4701;51.566;6.776;2023-02-23T10:57:28;101166.81;;;8.46;100.00
9325;BME280;4701;51.566;6.776;2023-02-23T10:59:32;101168.47;;;8.47;100.00
9325;BME280;4701;51.566;6.776;2023-02-23T11:01:35;101172.25;;;8.46;100.00
9325;BME280;4701;51.566;6.776;2023-02-23T11:03:46;101174.38;;;8.44;100.00
9325;BME280;4701;51.566;6.776;2023-02-23T11:05:50;101182.78;;;8.42;100.00
9325;BME280;4701;51.566;6.776;2023-02-23T11:08:08;101181.03;;;8.36;100.00
9325;BME280;4701;51.566;6.776;2023-02-23T11:10:26;101180.72;;;8.32;100.00
9325;BME280;4701;51.566;6.776;2023-02-23T11:12:36;101174.44;;;8.32;100.00
9325;BME280;4701;51.566;6.776;2023-02-23T11:14:41;101184.09;;;8.28;100.00
9325;BME280;4701;51.566;6.776;2023-02-23T11:16:43;101179.88;;;8.32;100.00
9325;BME280;4701;51.566;6.776;2023-02-23T11:18:50;101187.41;;;8.30;100.00
9325;BME280;4701;51.566;6.776;2023-02-23T11:20:54;101185.38;;;8.25;100.00
9325;BME280;4701;51.566;6.776;2023-02-23T11:22:56;101178.34;;;8.24;100.00
9325;BME280;4701;51.566;6.776;2023-02-23T11:25:00;101183.28;;;8.27;100.00
9325;BME280;4701;51.566;6.776;2023-02-23T11:27:06;101179.50;;;8.28;100.00
9325;BME280;4701;51.566;6.776;2023-02-23T11:29:25;101174.44;;;8.32;100.00
9325;BME280;4701;51.566;6.776;2023-02-23T11:31:34;101181.53;;;8.33;100.00
9325;BME280;4701;51.566;6.776;2023-02-23T11:33:37;101182.09;;;8.35;100.00
9325;BME280;4701;51.566;6.776;2023-02-23T11:35:39;101180.56;;;8.39;100.00
9325;BME280;4701;51.566;6.776;2023-02-23T11:37:41;101178.44;;;8.41;100.00
9325;BME280;4701;51.566;6.776;2023-02-23T11:39:50;101181.97;;;8.42;100.00
9325;BME280;4701;51.566;6.776;2023-02-23T11:42:13;101174.88;;;8.41;100.00
9325;BME280;4701;51.566;6.776;2023-02-23T11:44:21;101177.50;;;8.35;100.00
9325;BME280;4701;51.566;6.776;2023-02-23T11:46:24;101181.03;;;8.36;100.00
9325;BME280;4701;51.566;6.776;2023-02-23T11:48:31;101173.72;;;8.25;100.00
9325;BME280;4701;51.566;6.776;2023-02-23T11:50:34;101172.56;;;8.21;100.00
9325;BME280;4701;51.566;6.776;2023-02-23T11:52:37;101173.28;;;8.16;100.00
9325;BME280;4701;51.566;6.776;2023-02-23T11:54:49;101175.06;;;8.11;100.00
9325;BME280;4701;51.566;6.776;2023-02-23T11:56:53;101172.84;;;8.08;100.00
9325;BME280;4701;51.566;6.776;2023-02-23T11:59:00;101166.31;;;8.09;100.00
9325;BME280;4701;51.566;6.776;2023-02-23T12:01:05;101167.41;;;8.08;100.00
9325;BME280;4701;51.566;6.776;2023-02-23T12:03:16;101163.13;;;8.12;100.00
9325;BME280;4701;51.566;6.776;2023-02-23T12:05:23;101157.34;;;8.08;100.00
9325;BME280;4701;51.566;6.776;2023-02-23T12:07:32;101165.97;;;8.05;100.00
9325;BME280;4701;51.566;6.776;2023-02-23T12:09:38;101146.97;;;8.05;100.00
9325;BME280;4701;51.566;6.776;2023-02-23T12:11:45;101154.38;;;8.10;100.00
9325;BME280;4701;51.566;6.776;2023-02-23T12:13:49;101155.56;;;8.14;100.00
9325;BME280;4701;51.566;6.776;2023-02-23T12:16:00;101162.44;;;8.16;100.00
9325;BME280;4701;51.566;6.776;2023-02-23T12:18:09;101161.22;;;8.24;100.00
9325;BME280;4701;51.566;6.776;2023-02-23T12:20:16;101159.06;;;8.26;100.00
9325;BME280;4701;51.566;6.776;2023-02-23T12:22:22;101164.03;;;8.29;100.00
9325;BME280;4701;51.566;6.776;2023-02-23T12:24:34;101161.53;;;8.27;100.00
9325;BME280;4701;51.566;6.776;2023-02-23T12:26:44;101160.47;;;8.28;100.00
9325;BME280;4701;51.566;6.776;2023-02-23T12:28:52;101181.88;;;8.25;100.00
9325;BME280;4701;51.566;6.776;2023-02-23T12:31:03;101171.81;;;8.25;100.00
9325;BME280;4701;51.566;6.776;2023-02-23T12:33:11;101171.50;;;8.22;100.00
9325;BME280;4701;51.566;6.776;2023-02-23T12:35:19;101173.16;;;8.23;100.00
9325;BME280;4701;51.566;6.776;2023-02-23T12:37:32;101170.81;;;8.15;100.00
9325;BME280;4701;51.566;6.776;2023-02-23T12:39:39;101172.56;;;8.21;100.00
9325;BME280;4701;51.566;6.776;2023-02-23T12:41:47;101172.16;;;8.29;100.00
9325;BME280;4701;51.566;6.776;2023-02-23T12:43:54;101169.44;;;8.29;100.00
9325;BME280;4701;51.566;6.776;2023-02-23T12:46:05;101167.13;;;8.32;100.00
9325;BME280;4701;51.566;6.776;2023-02-23T12:48:28;101171.50;;;8.33;100.00
9325;BME280;4701;51.566;6.776;2023-02-23T12:50:33;101173.47;;;8.38;100.00
9325;BME280;4701;51.566;6.776;2023-02-23T12:52:41;101169.69;;;8.39;100.00
9325;BME280;4701;51.566;6.776;2023-02-23T12:54:44;101173.31;;;8.45;100.00
9325;BME280;4701;51.566;6.776;2023-02-23T12:56:53;101166.97;;;8.39;100.00
9325;BME280;4701;51.566;6.776;2023-02-23T12:59:12;101166.16;;;8.39;100.00
9325;BME280;4701;51.566;6.776;2023-02-23T13:01:19;101165.25;;;8.33;100.00
9325;BME280;4701;51.566;6.776;2023-02-23T13:03:49;101171.72;;;8.32;100.00
9325;BME280;4701;51.566;6.776;2023-02-23T13:06:01;101171.94;;;8.30;100.00
9325;BME280;4701;51.566;6.776;2023-02-23T13:08:11;101169.84;;;8.32;100.00
9325;BME280;4701;51.566;6.776;2023-02-23T13:10:28;101171.72;;;8.32;100.00
9325;BME280;4701;51.566;6.776;2023-02-23T13:12:42;101173.38;;;8.21;100.00
9325;BME280;4701;51.566;6.776;2023-02-23T13:14:54;101171.72;;;8.20;100.00
9325;BME280;4701;51.566;6.776;2023-02-23T13:17:06;101172.91;;;8.24;100.00
9325;BME280;4701;51.566;6.776;2023-02-23T13:19:12;101167.59;;;8.18;100.00
9325;BME280;4701;51.566;6.776;2023-02-23T13:21:23;101171.13;;;8.18;100.00
9325;BME280;4701;51.566;6.776;2023-02-23T13:23:31;101178.34;;;8.13;100.00
9325;BME280;4701;51.566;6.776;2023-02-23T13:25:38;101178.94;;;8.15;100.00
9325;BME280;4701;51.566;6.776;2023-02-23T13:27:47;101171.03;;;8.13;100.00
9325;BME280;4701;51.566;6.776;2023-02-23T13:29:50;101178.13;;;8.14;100.00
9325;BME280;4701;51.566;6.776;2023-02-23T13:31:54;101174.47;;;8.09;100.00
9325;BME280;4701;51.566;6.776;2023-02-23T13:33:58;101172.84;;;8.08;100.00
9325;BME280;4701;51.566;6.776;2023-02-23T13:36:01;101171.03;;;8.13;100.00
9325;BME280;4701;51.566;6.776;2023-02-23T13:38:07;101176.31;;;8.20;100.00
9325;BME280;4701;51.566;6.776;2023-02-23T13:40:22;101175.66;;;8.13;100.00
9325;BME280;4701;51.566;6.776;2023-02-23T13:42:50;101179.50;;;8.17;100.00
9325;BME280;4701;51.566;6.776;2023-02-23T13:45:11;101176.00;;;8.16;100.00
9325;BME280;4701;51.566;6.776;2023-02-23T13:47:25;101170.44;;;8.11;100.00
9325;BME280;4701;51.566;6.776;2023-02-23T13:49:36;101158.88;;;8.16;100.00
9325;BME280;4701;51.566;6.776;2023-02-23T13:51:42;101161.69;;;8.21;100.00
9325;BME280;4701;51.566;6.776;2023-02-23T13:53:57;101160.72;;;8.27;100.00
9325;BME280;4701;51.566;6.776;2023-02-23T13:56:02;101158.34;;;8.30;100.00
9325;BME280;4701;51.566;6.776;2023-02-23T13:58:12;101165.25;;;8.33;100.00
9325;BME280;4701;51.566;6.776;2023-02-23T14:00:17;101163.91;;;8.35;100.00
9325;BME280;4701;51.566;6.776;2023-02-23T14:02:37;101167.81;;;8.40;100.00
9325;BME280;4701;51.566;6.776;2023-02-23T14:04:41;101165.16;;;8.45;100.00
9325;BME280;4701;51.566;6.776;2023-02-23T14:06:51;101162.13;;;8.41;100.00
9325;BME280;4701;51.566;6.776;2023-02-23T14:08:57;101166.47;;;8.42;100.00
9325;BME280;4701;51.566;6.776;2023-02-23T14:11:00;101162.47;;;8.45;100.00
9325;BME280;4701;51.566;6.776;2023-02-23T14:13:24;101165.69;;;8.42;100.00
9325;BME280;4701;51.566;6.776;2023-02-23T14:15:39;101166.34;;;8.49;100.00
9325;BME280;4701;51.566;6.776;2023-02-23T14:17:41;101171.28;;;8.52;100.00
9325;BME280;4701;51.566;6.776;2023-02-23T14:20:03;101165.75;;;8.47;100.00
9325;BME280;4701;51.566;6.776;2023-02-23T14:22:09;101168.13;;;8.43;100.00
9325;BME280;4701;51.566;6.776;2023-02-23T14:24:17;101175.56;;;8.48;100.00
9325;BME280;4701;51.566;6.776;2023-02-23T14:26:38;101171.78;;;8.49;100.00
9325;BME280;4701;51.566;6.776;2023-02-23T14:28:43;101172.63;;;8.49;100.00
9325;BME280;4701;51.566;6.776;2023-02-23T14:30:47;101165.97;;;8.57;100.00
9325;BME280;4701;51.566;6.776;2023-02-23T14:32:50;101167.63;;;8.58;100.00
9325;BME280;4701;51.566;6.776;2023-02-23T14:34:56;101167.84;;;8.56;100.00
9325;BME280;4701;51.566;6.776;2023-02-23T14:37:11;101164.63;;;8.59;100.00
9325;BME280;4701;51.566;6.776;2023-02-23T14:39:17;101166.88;;;8.62;100.00
9325;BME280;4701;51.566;6.776;2023-02-23T14:41:24;101163.84;;;8.59;100.00
9325;BME280;4701;51.566;6.776;2023-02-23T14:43:38;101164.06;;;8.57;100.00
9325;BME280;4701;51.566;6.776;2023-02-23T14:45:41;101169.75;;;8.56;100.00
9325;BME280;4701;51.566;6.776;2023-02-23T14:47:45;101172.69;;;8.54;100.00
9325;BME280;4701;51.566;6.776;2023-02-23T14:49:50;101175.34;;;8.49;100.00
9325;BME280;4701;51.566;6.776;2023-02-23T14:51:55;101169.06;;;8.49;100.00
9325;BME280;4701;51.566;6.776;2023-02-23T14:53:59;101165.53;;;8.48;100.00
9325;BME280;4701;51.566;6.776;2023-02-23T14:56:00;101168.72;;;8.45;100.00
9325;BME280;4701;51.566;6.776;2023-02-23T14:58:16;101172.09;;;8.52;100.00
9325;BME280;4701;51.566;6.776;2023-02-23T15:00:23;101176.63;;;8.47;100.00
9325;BME280;4701;51.566;6.776;2023-02-23T15:02:28;101176.63;;;8.47;100.00
9325;BME280;4701;51.566;6.776;2023-02-23T15:04:30;101173.91;;;8.47;100.00
9325;BME280;4701;51.566;6.776;2023-02-23T15:06:35;101173.31;;;8.45;100.00
9325;BME280;4701;51.566;6.776;2023-02-23T15:08:42;101174.16;;;8.45;100.00
9325;BME280;4701;51.566;6.776;2023-02-23T15:10:46;101172.25;;;8.46;100.00
9325;BME280;4701;51.566;6.776;2023-02-23T15:12:49;101180.41;;;8.46;100.00
9325;BME280;4701;51.566;6.776;2023-02-23T15:14:55;101173.56;;;8.43;100.00
9325;BME280;4701;51.566;6.776;2023-02-23T15:16:57;101173.44;;;8.50;100.00
9325;BME280;4701;51.566;6.776;2023-02-23T15:19:00;101175.56;;;8.48;100.00
9325;BME280;4701;51.566;6.776;2023-02-23T15:21:05;101176.19;;;8.38;100.00
9325;BME280;4701;51.566;6.776;2023-02-23T15:23:10;101179.50;;;8.40;100.00
9325;BME280;4701;51.566;6.776;2023-02-23T15:25:16;101178.06;;;8.38;100.00
9325;BME280;4701;51.566;6.776;2023-02-23T15:27:21;101187.78;;;8.33;100.00
9325;BME280;4701;51.566;6.776;2023-02-23T15:29:30;101186.13;;;8.32;100.00
9325;BME280;4701;51.566;6.776;2023-02-23T15:31:32;101189.28;;;8.29;100.00
9325;BME280;4701;51.566;6.776;2023-02-23T15:33:35;101185.75;;;8.29;100.00
9325;BME280;4701;51.566;6.776;2023-02-23T15:35:40;101192.25;;;8.28;100.00
9325;BME280;4701;51.566;6.776;2023-02-23T15:37:48;101188.84;;;8.32;100.00
9325;BME280;4701;51.566;6.776;2023-02-23T15:39:51;101180.19;;;8.35;100.00
9325;BME280;4701;51.566;6.776;2023-02-23T15:41:57;101184.69;;;8.30;100.00
9325;BME280;4701;51.566;6.776;2023-02-23T15:44:04;101186.81;;;8.28;100.00
9325;BME280;4701;51.566;6.776;2023-02-23T15:46:07;101183.78;;;8.24;100.00
9325;BME280;4701;51.566;6.776;2023-02-23T15:48:13;101188.38;;;8.24;100.00
9325;BME280;4701;51.566;6.776;2023-02-23T15:50:20;101188.97;;;8.14;100.00
9325;BME280;4701;51.566;6.776;2023-02-23T15:52:24;101187.56;;;8.12;100.00
9325;BME280;4701;51.566;6.776;2023-02-23T15:54:28;101192.31;;;8.05;100.00
9325;BME280;4701;51.566;6.776;2023-02-23T15:56:33;101182.97;;;8.01;100.00
9325;BME280;4701;51.566;6.776;2023-02-23T15:58:39;101194.09;;;7.99;100.00
9325;BME280;4701;51.566;6.776;2023-02-23T16:00:49;101190.19;;;7.95;100.00
9325;BME280;4701;51.566;6.776;2023-02-23T16:02:54;101180.63;;;7.92;100.00
9325;BME280;4701;51.566;6.776;2023-02-23T16:05:07;101183.84;;;7.89;100.00
9325;BME280;4701;51.566;6.776;2023-02-23T16:07:16;101185.59;;;7.84;100.00
9325;BME280;4701;51.566;6.776;2023-02-23T16:09:26;101184.75;;;7.83;100.00
9325;BME280;4701;51.566;6.776;2023-02-23T16:11:31;101187.97;;;7.80;100.00
9325;BME280;4701;51.566;6.776;2023-02-23T16:13:37;101185.50;;;7.79;100.00
9325;BME280;4701;51.566;6.776;2023-02-23T16:15:43;101185.50;;;7.79;100.00
9325;BME280;4701;51.566;6.776;2023-02-23T16:17:46;101182.31;;;7.82;100.00
9325;BME280;4701;51.566;6.776;2023-02-23T16:19:48;101173.81;;;7.78;100.00
9325;BME280;4701;51.566;6.776;2023-02-23T16:21:52;101180.66;;;7.81;100.00
9325;BME280;4701;51.566;6.776;2023-02-23T16:23:58;101174.88;;;7.77;100.00
9325;BME280;4701;51.566;6.776;2023-02-23T16:26:05;101188.09;;;7.74;100.00
9325;BME280;4701;51.566;6.776;2023-02-23T16:28:12;101185.63;;;7.72;100.00
9325;BME280;4701;51.566;6.776;2023-02-23T16:30:19;101189.41;;;7.71;100.00
9325;BME280;4701;51.566;6.776;2023-02-23T16:32:22;101181.03;;;7.73;100.00
9325;BME280;4701;51.566;6.776;2023-02-23T16:34:26;101188.34;;;7.72;100.00
9325;BME280;4701;51.566;6.776;2023-02-23T16:36:34;101190.00;;;7.73;100.00
9325;BME280;4701;51.566;6.776;2023-02-23T16:38:39;101185.84;;;7.71;100.00
9325;BME280;4701;51.566;6.776;2023-02-23T16:40:41;101192.69;;;7.73;100.00
9325;BME280;4701;51.566;6.776;2023-02-23T16:42:43;101183.75;;;7.73;100.00
9325;BME280;4701;51.566;6.776;2023-02-23T16:44:44;101194.00;;;7.71;100.00
9325;BME280;4701;51.566;6.776;2023-02-23T16:49:26;101189.72;;;7.75;100.00
9325;BME280;4701;51.566;6.776;2023-02-23T16:51:30;101189.84;;;7.68;100.00
9325;BME280;4701;51.566;6.776;2023-02-23T16:53:34;101190.91;;;7.67;100.00
9325;BME280;4701;51.566;6.776;2023-02-23T16:55:36;101188.81;;;7.69;100.00
9325;BME280;4701;51.566;6.776;2023-02-23T16:57:40;101195.97;;;7.75;100.00
9325;BME280;4701;51.566;6.776;2023-02-23T16:59:42;101199.53;;;7.76;100.00
9325;BME280;4701;51.566;6.776;2023-02-23T17:01:44;101204.84;;;7.71;100.00
9325;BME280;4701;51.566;6.776;2023-02-23T17:03:46;101205.31;;;7.68;100.00
9325;BME280;4701;51.566;6.776;2023-02-23T17:05:51;101204.97;;;7.64;100.00
9325;BME280;4701;51.566;6.776;2023-02-23T17:07:53;101207.44;;;7.66;100.00
9325;BME280;4701;51.566;6.776;2023-02-23T17:09:57;101211.22;;;7.65;100.00
9325;BME280;4701;51.566;6.776;2023-02-23T17:11:59;101204.59;;;7.60;100.00
9325;BME280;4701;51.566;6.776;2023-02-23T17:14:01;101206.50;;;7.60;100.00
9325;BME280;4701;51.566;6.776;2023-02-23T17:16:04;101212.75;;;7.60;100.00
9325;BME280;4701;51.566;6.776;2023-02-23T17:18:07;101221.00;;;7.66;100.00
9325;BME280;4701;51.566;6.776;2023-02-23T17:20:09;101210.97;;;7.66;100.00